Time;durP1;ratioP1;P1;durP2;ratioP2;P2;SDS_P1;SDS_P2;PMS_P1;PMS_P2;Temp;Humidity;BMP_temperature;BMP_pressure;BME280_temperature;BME280_humidity;BME280_pressure;Samples;Min_cycle;Max_cycle;Signal;HPM_P1;HPM_P2
2022/03/15 00:00:46;;;;;;;18.40;8.45;;;3.90;99.90;;;;;;5052894;28;20051;-76
2022/03/15 00:03:12;;;;;;;22.08;9.23;;;4.80;99.90;;;;;;5029327;28;20037;-76
2022/03/15 00:05:37;;;;;;;21.23;10.20;;;4.00;99.90;;;;;;5035968;28;20390;-77
2022/03/15 00:08:04;;;;;;;22.17;8.40;;;4.00;99.90;;;;;;5062647;28;20041;-76
2022/03/15 00:10:29;;;;;;;15.82;8.73;;;4.00;99.90;;;;;;5026173;28;20047;-76
2022/03/15 00:12:56;;;;;;;17.35;7.80;;;4.00;99.90;;;;;;5056628;28;20571;-76
2022/03/15 00:15:24;;;;;;;22.15;7.85;;;4.00;99.90;;;;;;5052797;28;20036;-76
2022/03/15 00:17:50;;;;;;;20.23;7.55;;;3.90;99.90;;;;;;5056946;28;20048;-77
2022/03/15 00:20:18;;;;;;;17.45;7.57;;;4.00;99.90;;;;;;5049897;28;20052;-77
2022/03/15 00:22:45;;;;;;;16.42;8.50;;;3.90;99.90;;;;;;5052416;28;20049;-76
2022/03/15 00:25:13;;;;;;;14.52;7.65;;;3.90;99.90;;;;;;5026919;28;20084;-76
2022/03/15 00:27:39;;;;;;;23.20;7.93;;;3.90;99.90;;;;;;5048913;28;20044;-76
2022/03/15 00:30:06;;;;;;;22.15;7.40;;;3.90;99.90;;;;;;5033451;28;20131;-77
2022/03/15 00:32:33;;;;;;;18.17;7.82;;;4.00;99.90;;;;;;5024621;28;20067;-77
2022/03/15 00:34:59;;;;;;;23.05;7.80;;;4.00;99.90;;;;;;5024701;28;20048;-77
2022/03/15 00:37:25;;;;;;;23.98;9.48;;;4.10;99.90;;;;;;5064645;28;20056;-77
2022/03/15 00:39:51;;;;;;;18.52;7.97;;;4.10;99.90;;;;;;5034083;28;20048;-77
2022/03/15 00:42:17;;;;;;;16.60;7.85;;;4.00;99.90;;;;;;5034658;28;20109;-77
2022/03/15 00:44:43;;;;;;;20.00;7.85;;;4.00;99.90;;;;;;5033643;28;20056;-77
2022/03/15 00:47:09;;;;;;;17.35;7.65;;;3.90;99.90;;;;;;5048437;28;20032;-77
2022/03/15 00:49:35;;;;;;;16.17;7.40;;;3.90;99.90;;;;;;5023086;28;20057;-76
2022/03/15 00:52:02;;;;;;;17.85;7.53;;;3.90;99.90;;;;;;5024688;28;20076;-76
2022/03/15 00:54:28;;;;;;;17.55;7.57;;;3.80;99.90;;;;;;5035739;28;20059;-76
2022/03/15 00:56:54;;;;;;;22.60;9.43;;;3.80;99.90;;;;;;5056454;28;20048;-77
2022/03/15 00:59:20;;;;;;;16.23;7.97;;;3.80;99.90;;;;;;5044152;28;20065;-77
2022/03/15 01:01:46;;;;;;;19.60;7.57;;;3.70;99.90;;;;;;5052917;28;20763;-77
2022/03/15 01:04:12;;;;;;;24.33;9.00;;;3.70;99.90;;;;;;5034959;28;20063;-77
2022/03/15 01:06:38;;;;;;;24.10;9.00;;;3.70;99.90;;;;;;5048279;28;20040;-77
2022/03/15 01:09:06;;;;;;;21.52;8.65;;;3.70;99.90;;;;;;5045387;28;20073;-77
2022/03/15 01:11:31;;;;;;;17.15;8.48;;;3.80;99.90;;;;;;5044558;28;20459;-76
2022/03/15 01:13:57;;;;;;;19.08;8.65;;;3.70;99.90;;;;;;5044119;28;20109;-77
2022/03/15 01:16:23;;;;;;;22.75;9.95;;;3.70;99.90;;;;;;5024583;28;20063;-76
2022/03/15 01:18:48;;;;;;;26.35;9.90;;;3.70;99.90;;;;;;5031657;28;20119;-77
2022/03/15 01:21:14;;;;;;;16.67;8.20;;;3.70;99.90;;;;;;5033364;28;20048;-77
2022/03/15 01:23:41;;;;;;;19.58;8.30;;;3.70;99.90;;;;;;5045169;28;20041;-76
2022/03/15 01:26:06;;;;;;;22.95;9.02;;;3.70;99.90;;;;;;5045341;28;20785;-77
2022/03/15 01:28:33;;;;;;;16.88;7.78;;;3.60;99.90;;;;;;5053323;28;20064;-76
2022/03/15 01:30:58;;;;;;;19.98;8.50;;;3.60;99.90;;;;;;5055932;28;20221;-77
2022/03/15 01:33:24;;;;;;;15.40;7.95;;;3.60;99.90;;;;;;5029450;28;20474;-76
2022/03/15 01:35:50;;;;;;;16.70;7.40;;;3.50;99.90;;;;;;5037150;28;20048;-77
2022/03/15 01:38:16;;;;;;;17.80;7.72;;;3.50;99.90;;;;;;5054358;28;20039;-77
2022/03/15 01:40:45;;;;;;;20.52;7.93;;;3.50;99.90;;;;;;5035621;28;20044;-77
2022/03/15 01:43:11;;;;;;;16.35;8.02;;;3.40;99.90;;;;;;5036297;28;20037;-77
2022/03/15 01:45:38;;;;;;;14.95;8.50;;;3.40;99.90;;;;;;5046499;28;20048;-77
2022/03/15 01:48:06;;;;;;;16.75;7.85;;;3.40;99.90;;;;;;5047478;28;20059;-77
2022/03/15 01:50:32;;;;;;;15.05;7.57;;;3.30;99.90;;;;;;5030748;28;20041;-77
2022/03/15 01:52:58;;;;;;;19.15;7.55;;;3.30;99.90;;;;;;5034175;28;20048;-77
2022/03/15 01:55:24;;;;;;;18.67;7.03;;;3.30;99.90;;;;;;5052642;28;20110;-77
2022/03/15 01:57:50;;;;;;;15.10;7.38;;;3.30;99.90;;;;;;5053655;28;20766;-76
2022/03/15 02:00:17;;;;;;;22.30;9.05;;;3.30;99.90;;;;;;5050664;28;20044;-77
2022/03/15 02:02:43;;;;;;;19.00;9.00;;;3.30;99.90;;;;;;5044249;28;20089;-77
2022/03/15 02:05:10;;;;;;;21.60;8.77;;;3.40;99.90;;;;;;5033131;28;20091;-76
2022/03/15 02:07:36;;;;;;;15.55;8.50;;;3.40;99.90;;;;;;5030611;28;20484;-76
2022/03/15 02:10:03;;;;;;;21.63;9.40;;;3.40;99.90;;;;;;5045057;28;20052;-77
2022/03/15 02:12:29;;;;;;;21.25;10.20;;;3.50;99.90;;;;;;5030506;28;20045;-77
2022/03/15 02:15:01;;;;;;;15.45;8.65;;;3.50;99.90;;;;;;5051567;28;20055;-77
2022/03/15 02:17:27;;;;;;;18.38;9.05;;;3.50;99.90;;;;;;5031013;28;20049;-77
2022/03/15 02:19:53;;;;;;;16.65;9.20;;;3.60;99.90;;;;;;5049993;28;20048;-77
2022/03/15 02:22:19;;;;;;;18.10;8.45;;;3.60;99.90;;;;;;5049934;28;20525;-77
2022/03/15 02:24:45;;;;;;;23.50;9.73;;;3.60;99.90;;;;;;5053857;28;20832;-77
2022/03/15 02:27:11;;;;;;;16.00;8.75;;;3.70;99.90;;;;;;5033109;28;20053;-77
2022/03/15 02:29:37;;;;;;;17.63;9.55;;;3.50;99.90;;;;;;5049641;28;20102;-77
2022/03/15 02:32:03;;;;;;;16.23;8.70;;;3.60;99.90;;;;;;5034529;28;20057;-77
2022/03/15 02:34:29;;;;;;;16.95;9.50;;;3.60;99.90;;;;;;5035214;28;20045;-77
2022/03/15 02:36:54;;;;;;;15.27;9.07;;;3.60;99.90;;;;;;5052529;28;20079;-77
2022/03/15 02:39:21;;;;;;;16.67;9.90;;;3.60;99.90;;;;;;5057512;28;20037;-77
2022/03/15 02:41:47;;;;;;;19.80;9.80;;;3.60;99.90;;;;;;5051487;28;20562;-77
2022/03/15 02:44:12;;;;;;;22.42;11.20;;;3.70;99.90;;;;;;5037263;28;20048;-77
2022/03/15 02:46:39;;;;;;;17.45;9.68;;;3.70;99.90;;;;;;5033947;28;20574;-77
2022/03/15 02:49:06;;;;;;;20.05;11.85;;;3.80;99.90;;;;;;5029158;28;20061;-77
2022/03/15 02:51:32;;;;;;;22.70;11.30;;;3.80;99.90;;;;;;5057190;28;20908;-77
2022/03/15 02:53:59;;;;;;;24.92;11.70;;;3.80;99.90;;;;;;5066531;28;20052;-77
2022/03/15 02:56:25;;;;;;;22.17;12.02;;;3.90;99.90;;;;;;5051190;28;20049;-77
2022/03/15 02:58:50;;;;;;;22.20;12.80;;;3.90;99.90;;;;;;5047196;28;20589;-77
2022/03/15 03:01:16;;;;;;;22.05;11.98;;;4.00;99.90;;;;;;5052736;28;20143;-77
2022/03/15 03:03:42;;;;;;;20.85;12.35;;;4.10;99.90;;;;;;5042257;28;20451;-76
2022/03/15 03:06:07;;;;;;;20.38;12.10;;;4.10;99.90;;;;;;5036436;28;20141;-77
2022/03/15 03:08:34;;;;;;;22.55;11.85;;;4.10;99.90;;;;;;5043566;28;20055;-77
2022/03/15 03:11:00;;;;;;;21.30;11.68;;;4.20;99.90;;;;;;5017595;28;20052;-77
2022/03/15 03:13:26;;;;;;;23.50;11.88;;;4.70;99.90;;;;;;5034534;28;20045;-77
2022/03/15 03:15:57;;;;;;;25.02;12.32;;;4.30;99.90;;;;;;5056964;28;20059;-77
2022/03/15 03:18:31;;;;;;;21.27;11.90;;;4.30;99.90;;;;;;5051184;28;20063;-77
2022/03/15 03:20:57;;;;;;;20.13;12.52;;;4.40;99.90;;;;;;5051218;28;20060;-77
2022/03/15 03:23:23;;;;;;;23.27;12.93;;;4.40;99.90;;;;;;5043954;28;20121;-75
2022/03/15 03:25:48;;;;;;;22.98;12.48;;;4.40;99.90;;;;;;5058949;28;20067;-76
2022/03/15 03:28:14;;;;;;;19.80;12.27;;;4.50;99.90;;;;;;5050499;28;20153;-75
2022/03/15 03:30:46;;;;;;;20.70;11.40;;;4.80;99.90;;;;;;5037712;28;20172;-75
2022/03/15 03:33:13;;;;;;;20.25;11.82;;;4.50;99.90;;;;;;5037777;28;20062;-76
2022/03/15 03:35:39;;;;;;;25.25;11.70;;;4.60;99.90;;;;;;5048822;28;20047;-76
2022/03/15 03:38:05;;;;;;;21.55;11.95;;;4.50;99.90;;;;;;5062418;28;20040;-76
2022/03/15 03:40:32;;;;;;;22.35;11.25;;;4.50;99.90;;;;;;5034134;28;20151;-76
2022/03/15 03:42:58;;;;;;;21.08;12.23;;;4.50;99.90;;;;;;5037488;28;20079;-76
2022/03/15 03:45:24;;;;;;;18.95;11.70;;;4.40;99.90;;;;;;5050259;28;20143;-76
2022/03/15 03:47:49;;;;;;;18.92;10.60;;;4.40;99.90;;;;;;5038230;28;20103;-76
2022/03/15 03:50:15;;;;;;;20.38;11.38;;;4.40;99.90;;;;;;5056302;28;20143;-76
2022/03/15 03:52:41;;;;;;;20.15;10.43;;;4.30;99.90;;;;;;5052855;28;20045;-76
2022/03/15 03:55:07;;;;;;;24.23;11.98;;;4.30;99.90;;;;;;5057275;28;20044;-76
2022/03/15 03:57:33;;;;;;;24.35;12.35;;;4.20;99.90;;;;;;5055672;28;20048;-76
2022/03/15 03:59:59;;;;;;;23.40;12.43;;;4.20;99.90;;;;;;5038436;28;20052;-76
2022/03/15 04:02:26;;;;;;;23.17;11.48;;;4.20;99.90;;;;;;5030269;28;20036;-76
2022/03/15 04:04:53;;;;;;;25.60;12.02;;;4.20;99.90;;;;;;5035648;28;20041;-76
2022/03/15 04:07:19;;;;;;;19.73;10.48;;;4.20;99.90;;;;;;5036852;28;20036;-76
2022/03/15 04:09:45;;;;;;;18.73;10.80;;;4.30;99.90;;;;;;5035113;28;20054;-76
2022/03/15 04:12:10;;;;;;;20.50;11.18;;;4.30;99.90;;;;;;5049506;28;20124;-76
2022/03/15 04:14:36;;;;;;;20.55;10.82;;;4.30;99.90;;;;;;5053095;28;20480;-76
2022/03/15 04:17:07;;;;;;;19.88;10.93;;;4.30;99.90;;;;;;5035141;28;20125;-76
2022/03/15 04:19:32;;;;;;;17.90;10.23;;;4.30;99.90;;;;;;5051831;28;20053;-76
2022/03/15 04:21:58;;;;;;;19.73;11.57;;;4.40;99.90;;;;;;5036007;28;20526;-76
2022/03/15 04:24:26;;;;;;;19.75;11.00;;;4.40;99.90;;;;;;5033584;28;20045;-76
2022/03/15 04:26:52;;;;;;;18.88;10.55;;;4.40;99.90;;;;;;5050355;28;20060;-76
2022/03/15 04:29:17;;;;;;;18.20;10.50;;;4.40;99.90;;;;;;5032158;28;20036;-76
2022/03/15 04:31:43;;;;;;;21.20;11.10;;;4.50;99.90;;;;;;5034030;28;20060;-76
2022/03/15 04:34:10;;;;;;;21.38;11.40;;;4.50;99.90;;;;;;5035183;28;20049;-76
2022/03/15 04:36:35;;;;;;;18.20;10.45;;;4.50;99.90;;;;;;5033018;28;20056;-76
2022/03/15 04:39:03;;;;;;;22.05;12.15;;;4.50;99.90;;;;;;5055749;28;20044;-76
2022/03/15 04:41:28;;;;;;;22.27;11.55;;;4.50;99.90;;;;;;5048236;28;20491;-76
2022/03/15 04:43:54;;;;;;;22.42;12.15;;;4.60;99.90;;;;;;5033317;28;20053;-77
2022/03/15 04:46:20;;;;;;;20.50;11.55;;;4.60;99.90;;;;;;5032394;28;20071;-76
2022/03/15 04:48:46;;;;;;;20.42;10.85;;;4.60;99.90;;;;;;5031097;28;20389;-76
2022/03/15 04:51:12;;;;;;;19.50;10.77;;;4.60;99.90;;;;;;5050457;28;20105;-76
2022/03/15 04:53:37;;;;;;;19.55;10.93;;;4.60;99.90;;;;;;5033471;28;20114;-76
2022/03/15 04:56:04;;;;;;;18.33;10.13;;;4.70;99.90;;;;;;5048316;28;20053;-76
2022/03/15 04:58:29;;;;;;;20.45;10.60;;;4.70;99.90;;;;;;5031611;28;20055;-76
2022/03/15 05:00:55;;;;;;;19.70;11.20;;;4.70;99.90;;;;;;5051861;28;20045;-76
2022/03/15 05:03:21;;;;;;;21.92;11.57;;;4.70;99.90;;;;;;5024182;28;20063;-76
2022/03/15 05:05:47;;;;;;;18.25;11.07;;;4.70;99.90;;;;;;5048003;28;20487;-76
2022/03/15 05:08:12;;;;;;;21.38;11.43;;;4.70;99.90;;;;;;5026326;28;20044;-76
2022/03/15 05:13:22;;;;;;;20.52;11.82;;;4.70;99.90;;;;;;5044660;28;20132;-78
2022/03/15 05:15:48;;;;;;;22.55;11.65;;;4.70;99.90;;;;;;5050221;28;20048;-77
2022/03/15 05:18:14;;;;;;;21.70;11.63;;;4.70;99.90;;;;;;5028729;28;20495;-77
2022/03/15 05:20:39;;;;;;;21.30;11.27;;;4.60;99.90;;;;;;5043680;28;20149;-77
2022/03/15 05:23:05;;;;;;;19.10;10.48;;;4.60;99.90;;;;;;5031698;28;20087;-76
2022/03/15 05:25:31;;;;;;;18.63;10.52;;;4.60;99.90;;;;;;5023439;28;20052;-77
2022/03/15 05:27:57;;;;;;;17.13;10.57;;;4.60;99.90;;;;;;5031573;28;20147;-77
2022/03/15 05:30:23;;;;;;;24.13;11.30;;;4.60;99.90;;;;;;5047827;28;21041;-77
2022/03/15 05:32:48;;;;;;;23.63;12.98;;;4.50;99.90;;;;;;5031452;28;20037;-77
2022/03/15 05:35:14;;;;;;;19.90;11.88;;;5.00;99.90;;;;;;5046704;28;20071;-77
2022/03/15 05:37:40;;;;;;;25.45;12.95;;;4.50;99.90;;;;;;5030204;28;20056;-76
2022/03/15 05:40:07;;;;;;;19.38;11.57;;;4.50;99.90;;;;;;5031512;28;20049;-77
2022/03/15 05:42:32;;;;;;;25.38;11.80;;;4.50;99.90;;;;;;5040081;28;20049;-77
2022/03/15 05:44:58;;;;;;;20.75;12.05;;;4.40;99.90;;;;;;5034868;28;20728;-77
2022/03/15 05:47:24;;;;;;;25.33;13.25;;;4.90;99.90;;;;;;5057180;28;20175;-77
2022/03/15 05:49:49;;;;;;;20.38;12.82;;;4.40;99.90;;;;;;5029350;28;20056;-77
2022/03/15 05:52:15;;;;;;;26.10;12.27;;;4.40;99.90;;;;;;5053070;28;20045;-77
2022/03/15 05:54:42;;;;;;;24.75;13.15;;;4.40;99.90;;;;;;5036110;28;20122;-77
2022/03/15 05:57:08;;;;;;;23.88;13.02;;;4.40;99.90;;;;;;5056475;28;20091;-76
2022/03/15 05:59:33;;;;;;;23.42;12.52;;;4.40;99.90;;;;;;5042938;28;20040;-77
2022/03/15 06:01:59;;;;;;;22.05;12.38;;;4.40;99.90;;;;;;5056879;28;20036;-76
2022/03/15 06:04:26;;;;;;;21.63;12.43;;;4.40;99.90;;;;;;5035754;28;20095;-77
2022/03/15 06:06:55;;;;;;;23.10;12.68;;;4.40;99.90;;;;;;5053745;28;20055;-76
2022/03/15 06:09:24;;;;;;;22.85;13.32;;;4.40;99.90;;;;;;5063103;28;20068;-77
2022/03/15 06:11:51;;;;;;;22.65;12.57;;;4.40;99.90;;;;;;5036242;28;20071;-77
2022/03/15 06:14:19;;;;;;;26.65;13.57;;;4.50;99.90;;;;;;5040199;28;20590;-78
2022/03/15 06:16:44;;;;;;;22.58;12.10;;;4.50;99.90;;;;;;5058937;28;20591;-78
2022/03/15 06:19:10;;;;;;;25.17;11.85;;;4.50;99.90;;;;;;5039962;28;20120;-77
2022/03/15 06:21:36;;;;;;;20.73;11.55;;;4.50;99.90;;;;;;5059143;28;20048;-78
2022/03/15 06:24:02;;;;;;;17.67;11.20;;;4.50;99.90;;;;;;5058037;28;20048;-78
2022/03/15 06:26:28;;;;;;;21.52;12.48;;;4.60;99.90;;;;;;5040249;28;20076;-78
2022/03/15 06:28:54;;;;;;;24.42;13.43;;;4.60;99.90;;;;;;5059162;28;20217;-77
2022/03/15 06:31:20;;;;;;;20.80;11.23;;;4.50;99.90;;;;;;5055558;28;20044;-78
2022/03/15 06:33:47;;;;;;;23.10;13.05;;;4.60;99.90;;;;;;5055021;28;20188;-77
2022/03/15 06:36:14;;;;;;;22.60;13.18;;;4.60;99.90;;;;;;5037928;28;20059;-78
2022/03/15 06:38:40;;;;;;;25.77;14.73;;;4.70;99.90;;;;;;5033076;28;20053;-77
2022/03/15 06:41:07;;;;;;;19.48;12.93;;;4.70;99.90;;;;;;5037498;28;20132;-80
2022/03/15 06:43:34;;;;;;;25.55;13.05;;;4.70;99.90;;;;;;5050680;28;20052;-81
2022/03/15 06:46:00;;;;;;;26.73;13.10;;;4.70;99.90;;;;;;5057587;28;20050;-80
2022/03/15 06:48:26;;;;;;;22.67;12.73;;;4.80;99.90;;;;;;5032098;28;20053;-80
2022/03/15 06:50:53;;;;;;;28.52;13.85;;;4.80;99.90;;;;;;5055698;28;20502;-79
2022/03/15 06:53:18;;;;;;;25.60;13.63;;;4.80;99.90;;;;;;5037747;28;20052;-77
2022/03/15 06:55:44;;;;;;;22.48;14.93;;;4.90;99.90;;;;;;5038917;28;20059;-78
2022/03/15 06:58:10;;;;;;;29.42;15.15;;;4.90;99.90;;;;;;5049827;28;20045;-77
2022/03/15 07:00:35;;;;;;;24.88;13.98;;;4.90;99.90;;;;;;5057234;28;20048;-77
2022/03/15 07:03:01;;;;;;;30.17;15.20;;;5.00;99.90;;;;;;5054880;28;20044;-78
2022/03/15 07:05:26;;;;;;;27.75;14.65;;;5.00;99.90;;;;;;5058350;28;20119;-79
2022/03/15 07:07:52;;;;;;;26.60;15.00;;;5.00;99.90;;;;;;5053936;28;20114;-78
2022/03/15 07:10:19;;;;;;;31.65;15.80;;;5.00;99.90;;;;;;5057957;28;20048;-76
2022/03/15 07:12:45;;;;;;;28.67;16.45;;;5.10;99.90;;;;;;5048444;28;20059;-77
2022/03/15 07:15:11;;;;;;;25.35;15.80;;;5.10;99.90;;;;;;5028413;28;20102;-76
2022/03/15 07:17:37;;;;;;;31.27;16.90;;;5.10;99.90;;;;;;5031736;28;20044;-76
2022/03/15 07:20:04;;;;;;;31.48;16.55;;;5.10;99.90;;;;;;5044770;28;20566;-76
2022/03/15 07:22:29;;;;;;;34.70;17.70;;;5.10;99.90;;;;;;5055130;28;20048;-77
2022/03/15 07:24:55;;;;;;;31.95;17.40;;;5.20;99.90;;;;;;5055858;28;20056;-77
2022/03/15 07:27:21;;;;;;;28.02;17.40;;;5.20;99.90;;;;;;5055723;28;20499;-76
2022/03/15 07:29:47;;;;;;;41.65;20.15;;;5.20;99.90;;;;;;5055275;28;20059;-76
2022/03/15 07:32:13;;;;;;;35.67;20.38;;;5.40;99.90;;;;;;5061234;28;20061;-76
2022/03/15 07:34:38;;;;;;;29.70;18.40;;;5.30;99.90;;;;;;5061613;28;20045;-76
2022/03/15 07:37:04;;;;;;;34.08;19.50;;;5.30;99.90;;;;;;5058387;28;20037;-76
2022/03/15 07:39:30;;;;;;;32.35;18.60;;;5.40;99.90;;;;;;5042024;28;20108;-76
2022/03/15 07:41:57;;;;;;;36.53;20.63;;;5.40;99.90;;;;;;5060671;28;20037;-76
2022/03/15 07:44:23;;;;;;;37.78;20.55;;;5.40;99.90;;;;;;5059187;28;20388;-76
2022/03/15 07:46:48;;;;;;;34.80;20.00;;;5.50;99.90;;;;;;5041654;28;20055;-76
2022/03/15 07:49:16;;;;;;;34.85;19.38;;;5.50;99.90;;;;;;5058563;28;20101;-76
2022/03/15 07:51:42;;;;;;;37.28;21.50;;;5.50;99.90;;;;;;5033980;28;20052;-76
2022/03/15 07:54:08;;;;;;;39.80;21.25;;;5.50;99.90;;;;;;5040363;28;20076;-76
2022/03/15 07:56:33;;;;;;;40.42;23.13;;;5.50;99.90;;;;;;5059799;28;20965;-76
2022/03/15 07:58:59;;;;;;;44.90;22.52;;;5.50;99.90;;;;;;5056446;28;20486;-76
2022/03/15 08:01:24;;;;;;;39.55;22.65;;;5.60;99.90;;;;;;5040006;28;20777;-76
2022/03/15 08:03:52;;;;;;;40.47;22.80;;;5.60;99.90;;;;;;5036903;28;20081;-77
2022/03/15 08:06:18;;;;;;;40.78;22.08;;;5.60;99.90;;;;;;5040449;28;20130;-76
2022/03/15 08:08:43;;;;;;;43.35;23.48;;;5.70;99.90;;;;;;5041610;28;20041;-76
2022/03/15 08:11:09;;;;;;;42.92;23.55;;;5.70;99.90;;;;;;5056005;28;20041;-76
2022/03/15 08:13:34;;;;;;;42.30;23.35;;;5.80;99.90;;;;;;5059462;28;20041;-76
2022/03/15 08:16:02;;;;;;;44.17;24.15;;;5.70;99.90;;;;;;5061194;28;20048;-76
2022/03/15 08:18:28;;;;;;;39.00;23.05;;;5.70;99.90;;;;;;5060863;28;20032;-77
2022/03/15 08:20:55;;;;;;;46.78;23.70;;;5.70;99.90;;;;;;5044187;28;20048;-76
2022/03/15 08:23:21;;;;;;;39.58;23.15;;;5.90;99.90;;;;;;5040880;28;20049;-76
2022/03/15 08:25:47;;;;;;;42.97;24.75;;;5.90;99.90;;;;;;5054426;28;20059;-77
2022/03/15 08:28:13;;;;;;;42.95;22.15;;;5.80;99.90;;;;;;5059440;28;20057;-76
2022/03/15 08:30:38;;;;;;;41.85;22.88;;;5.90;99.90;;;;;;5042289;28;20053;-76
2022/03/15 08:33:04;;;;;;;44.15;23.27;;;5.90;99.90;;;;;;5041742;28;20053;-76
2022/03/15 08:35:30;;;;;;;46.42;23.67;;;5.90;99.90;;;;;;5060380;28;20044;-76
2022/03/15 08:37:55;;;;;;;48.53;23.17;;;6.00;99.90;;;;;;5060315;28;20147;-77
2022/03/15 08:40:22;;;;;;;41.92;23.50;;;6.00;99.90;;;;;;5041649;28;20044;-76
2022/03/15 08:42:48;;;;;;;39.25;22.45;;;6.00;99.90;;;;;;5060547;28;20235;-74
2022/03/15 08:45:14;;;;;;;42.50;24.17;;;6.10;99.90;;;;;;5058979;28;20925;-76
2022/03/15 08:47:40;;;;;;;41.97;23.30;;;6.10;99.90;;;;;;5059731;28;20048;-76
2022/03/15 08:50:07;;;;;;;46.70;24.77;;;6.10;99.90;;;;;;5041975;28;20098;-76
2022/03/15 08:52:33;;;;;;;46.33;24.83;;;6.20;99.90;;;;;;5041403;28;20147;-76
2022/03/15 08:54:59;;;;;;;42.22;24.45;;;6.20;99.90;;;;;;5060236;28;20036;-77
2022/03/15 08:57:24;;;;;;;48.05;25.20;;;6.30;99.90;;;;;;5059862;28;20765;-74
2022/03/15 08:59:50;;;;;;;48.08;24.90;;;6.30;99.90;;;;;;5048121;28;20048;-75
2022/03/15 09:02:17;;;;;;;48.28;25.60;;;6.40;99.90;;;;;;5039460;28;20056;-74
2022/03/15 09:04:46;;;;;;;47.30;25.38;;;6.40;99.90;;;;;;5018810;28;20653;-75
2022/03/15 09:07:11;;;;;;;41.78;23.45;;;6.50;99.90;;;;;;5044383;28;20592;-75
2022/03/15 09:09:37;;;;;;;44.78;25.20;;;6.50;99.90;;;;;;5059459;28;20049;-75
2022/03/15 09:12:03;;;;;;;45.90;24.95;;;6.50;99.90;;;;;;5059889;28;20055;-75
2022/03/15 09:14:29;;;;;;;44.42;25.25;;;7.00;99.90;;;;;;5059802;28;20602;-75
2022/03/15 09:16:55;;;;;;;46.15;26.50;;;6.60;99.90;;;;;;5044909;28;20041;-75
2022/03/15 09:19:21;;;;;;;44.00;24.80;;;6.70;99.90;;;;;;5039426;28;20052;-75
2022/03/15 09:21:47;;;;;;;47.72;26.90;;;6.70;99.90;;;;;;5040127;28;20040;-75
2022/03/15 09:24:13;;;;;;;47.67;25.60;;;6.80;99.90;;;;;;5039642;28;20052;-75
2022/03/15 09:26:42;;;;;;;47.70;26.17;;;6.80;99.90;;;;;;5039803;28;20618;-75
2022/03/15 09:29:08;;;;;;;42.80;24.75;;;6.90;99.90;;;;;;5039460;28;20868;-75
2022/03/15 09:31:34;;;;;;;44.97;26.33;;;6.90;99.90;;;;;;5038847;28;20053;-75
2022/03/15 09:33:59;;;;;;;41.75;25.48;;;7.00;99.90;;;;;;5039376;28;20928;-75
2022/03/15 09:36:25;;;;;;;42.15;25.23;;;7.00;99.90;;;;;;5041039;28;20056;-75
2022/03/15 09:38:51;;;;;;;40.65;24.38;;;7.10;99.90;;;;;;5059765;28;20041;-76
2022/03/15 09:41:18;;;;;;;48.42;26.50;;;7.10;99.90;;;;;;5057489;28;20810;-75
2022/03/15 09:43:45;;;;;;;47.63;25.67;;;7.20;99.90;;;;;;5054998;28;20052;-75
2022/03/15 09:46:13;;;;;;;48.08;26.05;;;7.30;99.90;;;;;;5039390;28;20048;-75
2022/03/15 09:48:40;;;;;;;41.47;25.33;;;7.40;99.90;;;;;;5039404;28;20049;-75
2022/03/15 09:51:10;;;;;;;44.67;27.00;;;7.50;99.90;;;;;;5040856;28;20045;-75
2022/03/15 09:53:38;;;;;;;48.33;26.25;;;7.60;99.90;;;;;;5058949;28;20723;-75
2022/03/15 09:56:04;;;;;;;40.95;25.50;;;7.70;99.90;;;;;;5059386;28;20056;-75
2022/03/15 09:58:29;;;;;;;42.83;26.13;;;7.70;99.90;;;;;;5049190;28;20045;-75
2022/03/15 10:00:57;;;;;;;42.70;26.75;;;7.80;99.90;;;;;;5039452;28;20084;-75
2022/03/15 10:03:23;;;;;;;44.72;26.05;;;7.90;99.90;;;;;;5034211;28;20049;-75
2022/03/15 10:05:50;;;;;;;39.28;25.90;;;8.00;99.90;;;;;;5039148;28;20449;-75
2022/03/15 10:08:17;;;;;;;39.72;23.40;;;8.10;99.90;;;;;;5058919;28;20133;-76
2022/03/15 10:10:47;;;;;;;38.22;24.13;;;8.10;99.90;;;;;;5050037;28;20059;-75
2022/03/15 10:13:13;;;;;;;37.60;22.92;;;8.20;99.90;;;;;;5043818;28;20046;-75
2022/03/15 10:15:49;;;;;;;36.20;21.40;;;8.30;99.90;;;;;;5039388;28;20633;-75
2022/03/15 10:18:18;;;;;;;30.88;20.15;;;8.40;99.90;;;;;;5039042;28;20052;-75
2022/03/15 10:20:43;;;;;;;32.78;20.80;;;8.40;99.90;;;;;;5038865;28;20067;-75
2022/03/15 10:23:12;;;;;;;28.63;19.85;;;8.60;99.90;;;;;;5058374;28;20052;-75
2022/03/15 10:25:41;;;;;;;35.90;20.17;;;8.60;99.90;;;;;;5057454;28;20052;-75
2022/03/15 10:28:09;;;;;;;31.92;19.13;;;8.70;99.90;;;;;;5039206;28;20049;-75
2022/03/15 10:30:36;;;;;;;32.22;19.83;;;8.80;99.90;;;;;;5038989;28;20384;-75
2022/03/15 10:33:02;;;;;;;29.27;18.73;;;8.80;99.90;;;;;;5020503;28;20550;-75
2022/03/15 10:35:31;;;;;;;29.92;17.60;;;8.80;99.90;;;;;;5038966;28;20060;-75
2022/03/15 10:37:58;;;;;;;31.25;18.20;;;8.90;99.90;;;;;;5057564;28;20045;-75
2022/03/15 10:40:42;;;;;;;30.92;17.63;;;8.90;99.90;;;;;;5051285;28;20051;-75
2022/03/15 10:43:08;;;;;;;29.92;17.52;;;9.00;99.90;;;;;;5042063;28;20045;-75
2022/03/15 10:45:37;;;;;;;34.95;17.75;;;9.00;99.90;;;;;;5058766;28;20044;-75
2022/03/15 10:48:12;;;;;;;31.92;18.95;;;9.00;99.90;;;;;;5057905;28;20061;-75
2022/03/15 10:50:56;;;;;;;30.52;18.67;;;9.00;99.90;;;;;;5040598;28;20055;-75
2022/03/15 10:53:25;;;;;;;29.20;18.88;;;9.00;99.90;;;;;;5060977;28;20113;-75
2022/03/15 10:56:07;;;;;;;33.92;19.67;;;9.00;99.90;;;;;;5043450;28;20075;-75
2022/03/15 10:58:34;;;;;;;35.85;20.23;;;9.10;99.90;;;;;;5042269;28;20063;-75
2022/03/15 11:01:00;;;;;;;32.58;19.08;;;9.10;99.90;;;;;;5043163;28;20860;-75
2022/03/15 11:03:29;;;;;;;30.33;19.42;;;9.20;99.90;;;;;;5037514;28;20148;-75
2022/03/15 11:05:58;;;;;;;35.25;20.15;;;9.20;99.90;;;;;;5042679;28;20049;-75
2022/03/15 11:08:24;;;;;;;32.20;20.55;;;9.20;99.90;;;;;;5041977;28;20557;-75
2022/03/15 11:10:51;;;;;;;31.10;19.35;;;9.20;99.90;;;;;;5039954;28;20047;-75
2022/03/15 11:13:17;;;;;;;32.03;20.23;;;9.30;99.90;;;;;;5062293;28;20060;-75
2022/03/15 11:15:46;;;;;;;32.05;19.70;;;9.30;99.90;;;;;;5061675;28;20747;-75
2022/03/15 11:18:13;;;;;;;31.08;20.25;;;9.30;99.90;;;;;;5061903;28;20858;-75
2022/03/15 11:20:44;;;;;;;31.80;19.48;;;9.30;99.90;;;;;;5062111;28;20105;-75
2022/03/15 11:23:13;;;;;;;31.95;20.55;;;9.30;99.90;;;;;;5050032;28;20041;-75
2022/03/15 11:25:42;;;;;;;34.53;20.17;;;9.20;99.90;;;;;;5046967;28;20084;-75
2022/03/15 11:28:13;;;;;;;31.95;20.60;;;9.20;99.90;;;;;;5062002;28;20127;-75
2022/03/15 11:30:40;;;;;;;35.05;21.10;;;9.20;99.90;;;;;;5061778;28;20040;-75
2022/03/15 11:33:07;;;;;;;34.85;21.55;;;9.20;99.90;;;;;;5061182;28;20048;-75
2022/03/15 11:35:34;;;;;;;37.05;20.73;;;9.20;99.90;;;;;;5043606;28;20067;-76
2022/03/15 11:38:02;;;;;;;34.22;21.50;;;9.20;99.90;;;;;;5058093;28;20083;-76
2022/03/15 11:40:29;;;;;;;37.55;21.45;;;9.20;99.90;;;;;;5050403;28;20057;-75
2022/03/15 11:43:16;;;;;;;35.10;20.02;;;9.30;99.90;;;;;;5041677;28;20037;-75
2022/03/15 11:45:55;;;;;;;33.78;20.38;;;9.40;99.90;;;;;;5041953;28;20084;-75
2022/03/15 11:48:43;;;;;;;30.58;19.25;;;9.50;99.90;;;;;;5041644;28;20061;-75
2022/03/15 11:51:38;;;;;;;31.08;19.48;;;9.60;99.90;;;;;;5041249;28;20060;-75
2022/03/15 11:54:14;;;;;;;31.88;16.92;;;9.70;99.90;;;;;;5040416;28;20501;-75
2022/03/15 11:56:59;;;;;;;27.75;17.50;;;9.80;99.90;;;;;;5061340;28;20055;-75
2022/03/15 11:59:25;;;;;;;26.55;16.33;;;9.90;99.90;;;;;;5052858;28;20048;-76
2022/03/15 12:02:01;;;;;;;25.98;16.10;;;10.00;99.90;;;;;;5041496;28;20037;-75
2022/03/15 12:04:29;;;;;;;29.42;16.80;;;10.10;99.90;;;;;;5034910;28;20056;-75
2022/03/15 12:06:59;;;;;;;23.48;14.30;;;10.20;99.90;;;;;;5023171;28;20067;-74
2022/03/15 12:09:30;;;;;;;21.80;13.57;;;10.20;99.90;;;;;;5043694;28;20524;-79
2022/03/15 12:12:10;;;;;;;24.83;14.25;;;10.30;99.90;;;;;;5040148;28;20105;-79
2022/03/15 12:14:45;;;;;;;24.60;14.05;;;10.40;99.90;;;;;;5060973;28;20083;-79
2022/03/15 12:17:12;;;;;;;25.23;14.55;;;10.40;99.90;;;;;;5061086;28;20051;-79
2022/03/15 12:19:50;;;;;;;25.52;14.98;;;10.40;99.90;;;;;;5046959;28;20056;-79
2022/03/15 12:22:25;;;;;;;22.25;13.70;;;10.40;99.90;;;;;;5052163;28;20037;-79
2022/03/15 12:25:13;;;;;;;24.63;12.85;;;10.50;99.90;;;;;;5052085;28;20863;-79
2022/03/15 12:27:44;;;;;;;24.98;13.35;;;10.50;99.90;;;;;;5042731;28;20056;-79
2022/03/15 12:30:18;;;;;;;23.50;12.45;;;10.60;99.90;;;;;;5060498;28;20048;-79
2022/03/15 12:32:54;;;;;;;20.75;11.63;;;10.70;99.90;;;;;;5055253;28;20056;-80
2022/03/15 12:35:25;;;;;;;19.95;12.20;;;10.70;99.90;;;;;;5041197;28;20080;-79
2022/03/15 12:38:02;;;;;;;20.90;11.38;;;10.90;99.90;;;;;;5060522;28;20861;-79
2022/03/15 12:40:31;;;;;;;19.33;11.05;;;11.00;99.90;;;;;;5046243;28;20068;-79